Salmon Gums RES. Station, Western Australia

7:01 AM AWST on July 31, 2015 (GMT +0800)
Esperance | | Change Station
CLOSE
Current Station
Airport
Location: Esperance Airport,
Elevation: 469 ft
Nearby Weather Stations

Elev 469 ft 33.68 °S, 121.82 °E | Updated 1 hour ago

Mostly Cloudy
Mostly Cloudy
59 °F
Feels Like 59 °F
N
12
Wind Variable Wind from NW

Today
High -- | Low -- °F
--% Chance of Precip.
Yesterday
High -- | Low -- °F
Precip. -- in
6:45 AM 5:14 PM
Full, 100% visible
Pressure 29.95 in
Visibility 6.2 miles
Clouds Mostly Cloudy 5500 ft
Mostly Cloudy 7300 ft
Mostly Cloudy 10500 ft
Dew Point 59 °F
Humidity 100%
Rainfall 0.00 in
Snow Depth Not available.
UV 0 out of 12
Pollen Not available.
Air Quality Not available.
Flu Activity Not available.
METAR YESP 302200Z AUTO 32010KT 9999 // BKN055 BKN073 BKN105 15/15 Q1014

More Conditions Fewer Conditions

Pressure 29.95 in
Visibility 6.2 miles
Clouds Mostly Cloudy 5500 ft
Mostly Cloudy 7300 ft
Mostly Cloudy 10500 ft
Dew Point 59 °F
Humidity 100%
Rainfall 0.00 in
Snow Depth Not available.
UV 0 out of 12
Pollen Not available.
Air Quality Not available.
Flu Activity Not available.
METAR YESP 302200Z AUTO 32010KT 9999 // BKN055 BKN073 BKN105 15/15 Q1014

More Conditions Fewer Conditions

10-Day Weather Forecast

×

Almanac

Astronomy

Jul. 31, 2015 Rise Set
Actual Time
Civil Twilight
Nautical Twilight
Astronomical Twilight
Moon
Length of Visible Light
Length of Day
Tomorrow will be .
, % of the Moon is Illuminated

Today's Extremes

Country Highs Country Lows

Community

WunderPhotos

Upload Photos

1,842,532 photos uploaded!

WunderBlogs® & News

Nearby

Air Quality

  Air Quality AQ Index Pollutant
Not available.

Snow Depth

Station Depth Elevation

Earthquake Activity

City Distance Mag. Time & Date
Minimum magnitude displayed is 2.5.

Coastal Water Temperatures

Place Temperature

Stations

Nearby Weather Stations

Station Location Temp. Windchill Dew Point Humidity Wind Precip. Elev Updated Type